createdAt,value
2023-03-25T00:00:39.570Z,8.00
2023-03-25T00:03:11.199Z,8.03
2023-03-25T00:05:43.017Z,8.03
2023-03-25T00:08:14.571Z,8.08
2023-03-25T00:10:46.130Z,8.06
2023-03-25T00:13:17.992Z,8.03
2023-03-25T00:15:53.455Z,8.09
2023-03-25T00:18:33.949Z,8.11
2023-03-25T00:21:10.707Z,8.13
2023-03-25T00:23:42.554Z,8.14
2023-03-25T00:26:14.099Z,8.13
2023-03-25T00:28:45.803Z,8.15
2023-03-25T00:31:17.375Z,8.18
2023-03-25T00:33:50.837Z,8.15
2023-03-25T00:36:22.348Z,8.16
2023-03-25T00:38:53.994Z,8.24
2023-03-25T00:41:26.129Z,8.24
2023-03-25T00:43:59.556Z,8.24
2023-03-25T00:46:33.105Z,8.26
2023-03-25T00:49:04.707Z,8.31
2023-03-25T00:51:36.315Z,8.33
2023-03-25T00:54:24.867Z,8.39
2023-03-25T00:56:56.507Z,8.40
2023-03-25T00:59:28.099Z,8.43
2023-03-25T01:01:59.639Z,8.49
2023-03-25T01:04:31.223Z,8.51
2023-03-25T01:07:03.629Z,8.53
2023-03-25T01:09:34.996Z,8.63
2023-03-25T01:12:06.630Z,8.68
2023-03-25T01:14:38.507Z,8.73
2023-03-25T01:17:11.480Z,8.80
2023-03-25T01:19:43.136Z,8.80
2023-03-25T01:22:14.912Z,8.86
2023-03-25T01:24:46.435Z,8.83
2023-03-25T01:27:17.970Z,8.83
2023-03-25T01:29:49.600Z,8.87
2023-03-25T01:32:21.193Z,8.80
2023-03-25T01:34:52.832Z,8.77
2023-03-25T01:37:25.693Z,8.77
2023-03-25T01:39:57.306Z,8.76
2023-03-25T01:42:28.766Z,8.81
2023-03-25T01:45:20.763Z,8.76
2023-03-25T01:48:06.212Z,8.79
2023-03-25T01:50:45.300Z,8.82
2023-03-25T01:53:16.933Z,8.88
2023-03-25T01:55:52.994Z,8.84
2023-03-25T01:58:27.247Z,8.82
2023-03-25T02:01:01.494Z,8.78
2023-03-25T02:03:37.349Z,8.80
2023-03-25T02:06:29.302Z,8.77
2023-03-25T02:09:05.095Z,8.77
2023-03-25T02:11:36.588Z,8.75
2023-03-25T02:14:14.424Z,8.74
2023-03-25T02:17:06.981Z,8.74
2023-03-25T02:19:53.734Z,8.69
2023-03-25T02:22:59.492Z,8.64
2023-03-25T02:25:35.166Z,8.61
2023-03-25T02:28:47.221Z,8.44
2023-03-25T02:31:32.394Z,8.43
2023-03-25T02:34:13.105Z,8.36
2023-03-25T02:37:22.921Z,8.33
2023-03-25T02:40:10.325Z,8.33
2023-03-25T02:42:49.316Z,8.29
2023-03-25T02:45:43.957Z,8.31
2023-03-25T02:48:51.158Z,8.22
2023-03-25T02:51:31.645Z,8.22
2023-03-25T02:54:09.117Z,8.18
2023-03-25T02:56:44.704Z,8.18
2023-03-25T02:59:19.026Z,8.11
2023-03-25T03:01:51.316Z,8.13
2023-03-25T03:04:22.849Z,8.24
2023-03-25T03:06:56.708Z,8.28
2023-03-25T03:09:46.772Z,8.29
2023-03-25T03:12:46.883Z,8.22
2023-03-25T03:15:21.098Z,8.15
2023-03-25T03:18:17.121Z,8.09
2023-03-25T03:21:23.329Z,8.10
2023-03-25T03:24:16.796Z,7.99
2023-03-25T03:26:59.584Z,7.92
2023-03-25T03:29:41.428Z,7.86
2023-03-25T03:32:37.563Z,7.76
2023-03-25T03:35:25.850Z,7.77
2023-03-25T03:38:04.844Z,7.76
2023-03-25T03:40:38.803Z,7.64
2023-03-25T03:43:26.042Z,7.59
2023-03-25T03:46:05.208Z,7.56
2023-03-25T03:48:47.791Z,7.54
2023-03-25T03:51:24.908Z,7.51
2023-03-25T03:54:08.764Z,7.48
2023-03-25T03:56:46.634Z,7.45
2023-03-25T03:59:24.614Z,7.38
2023-03-25T04:02:01.329Z,7.36
2023-03-25T04:04:34.832Z,7.33
2023-03-25T04:07:10.768Z,7.26
2023-03-25T04:10:02.746Z,7.29
2023-03-25T04:12:41.010Z,7.25
2023-03-25T04:15:12.938Z,7.14
2023-03-25T04:17:45.184Z,7.16
2023-03-25T04:20:23.759Z,7.16
2023-03-25T04:22:55.676Z,7.14
2023-03-25T04:25:27.656Z,7.18
2023-03-25T04:27:59.984Z,7.14
2023-03-25T04:30:31.358Z,7.20
2023-03-25T04:33:02.878Z,7.24
2023-03-25T04:35:34.417Z,7.20
2023-03-25T04:38:07.245Z,7.23
2023-03-25T04:40:40.640Z,7.24
2023-03-25T04:43:16.867Z,7.29
2023-03-25T04:45:54.782Z,7.30
2023-03-25T04:48:32.902Z,7.36
2023-03-25T04:51:04.588Z,7.38
2023-03-25T04:53:37.457Z,7.38
2023-03-25T04:56:16.195Z,7.47
2023-03-25T04:58:47.858Z,7.46
2023-03-25T05:01:32.824Z,7.47
2023-03-25T05:04:05.637Z,7.40
2023-03-25T05:06:39.451Z,7.39
2023-03-25T05:09:16.696Z,7.42
2023-03-25T05:11:49.359Z,7.36
2023-03-25T05:14:22.018Z,7.41
2023-03-25T05:16:55.684Z,7.44
2023-03-25T05:19:28.840Z,7.44
2023-03-25T05:22:02.236Z,7.41
2023-03-25T05:24:34.088Z,7.49
2023-03-25T05:27:05.621Z,7.52
2023-03-25T05:29:37.238Z,7.56
2023-03-25T05:32:08.822Z,7.63
2023-03-25T05:34:40.472Z,7.65
2023-03-25T05:37:13.255Z,7.66
2023-03-25T05:39:46.295Z,7.75
2023-03-25T05:42:18.424Z,7.76
2023-03-25T05:44:54.109Z,7.77
2023-03-25T05:47:25.736Z,7.78
2023-03-25T05:50:00.836Z,7.75
2023-03-25T05:52:32.402Z,7.81
2023-03-25T05:55:06.062Z,7.71
2023-03-25T05:57:37.712Z,7.66
2023-03-25T06:00:11.132Z,7.61
2023-03-25T06:02:45.619Z,7.66
2023-03-25T06:05:17.496Z,7.61
2023-03-25T06:07:50.013Z,7.60
2023-03-25T06:10:22.477Z,7.64
2023-03-25T06:12:55.154Z,7.72
2023-03-25T06:15:34.186Z,7.64
2023-03-25T06:18:05.790Z,7.59
2023-03-25T06:20:38.165Z,7.60
2023-03-25T06:23:09.957Z,7.66
2023-03-25T06:25:41.438Z,7.70
2023-03-25T06:28:12.884Z,7.65
2023-03-25T06:30:46.150Z,7.67
2023-03-25T06:33:43.100Z,7.61
2023-03-25T06:36:12.559Z,7.55
2023-03-25T06:38:49.396Z,7.47
2023-03-25T06:41:21.969Z,7.43
2023-03-25T06:43:53.528Z,7.38
2023-03-25T06:46:26.672Z,7.34
2023-03-25T06:48:58.216Z,7.25
2023-03-25T06:51:29.866Z,7.26
2023-03-25T06:54:01.370Z,7.29
2023-03-25T06:56:33.345Z,7.22
2023-03-25T06:59:05.794Z,7.29
2023-03-25T07:01:37.249Z,7.27
2023-03-25T07:04:08.805Z,7.33
2023-03-25T07:06:41.209Z,7.27
2023-03-25T07:09:12.567Z,7.30
2023-03-25T07:11:44.156Z,7.27
2023-03-25T07:14:15.846Z,7.27
2023-03-25T07:16:48.400Z,7.37
2023-03-25T07:19:20.086Z,7.37
2023-03-25T07:21:51.587Z,7.42
2023-03-25T07:24:23.060Z,7.44
2023-03-25T07:26:54.458Z,7.31
2023-03-25T07:29:25.892Z,7.20
2023-03-25T07:31:59.508Z,7.23
2023-03-25T07:34:31.109Z,7.14
2023-03-25T07:37:03.996Z,7.18
2023-03-25T07:39:35.652Z,7.43
2023-03-25T07:42:07.463Z,7.58
2023-03-25T07:44:38.921Z,7.52
2023-03-25T07:47:13.537Z,7.48
2023-03-25T07:49:46.794Z,7.45
2023-03-25T07:52:18.313Z,7.50
2023-03-25T07:54:49.754Z,7.22
2023-03-25T07:57:21.230Z,7.26
2023-03-25T07:59:52.692Z,7.08
2023-03-25T08:02:24.214Z,7.16
2023-03-25T08:04:55.881Z,7.21
2023-03-25T08:07:28.362Z,7.27
2023-03-25T08:09:59.853Z,7.37
2023-03-25T08:12:31.619Z,7.49
2023-03-25T08:15:03.780Z,7.63
2023-03-25T08:17:35.648Z,7.88
2023-03-25T08:20:08.516Z,8.27
2023-03-25T08:22:40.192Z,8.50
2023-03-25T08:25:11.965Z,8.78
2023-03-25T08:27:43.835Z,8.71
2023-03-25T08:30:15.789Z,8.76
2023-03-25T08:32:54.521Z,8.83
2023-03-25T08:35:26.592Z,8.87
2023-03-25T08:38:02.236Z,8.88
2023-03-25T08:40:35.686Z,8.93
2023-03-25T08:43:07.337Z,8.88
2023-03-25T08:45:38.890Z,9.05
2023-03-25T08:48:11.241Z,9.04
2023-03-25T08:50:42.935Z,8.97
2023-03-25T08:53:16.265Z,8.76
2023-03-25T08:55:51.769Z,8.60
2023-03-25T08:58:25.211Z,8.75
2023-03-25T09:00:57.969Z,8.71
2023-03-25T09:03:29.743Z,8.78
2023-03-25T09:06:10.169Z,8.79
2023-03-25T09:08:41.677Z,8.87
2023-03-25T09:11:13.234Z,8.91
2023-03-25T09:13:44.716Z,8.86
2023-03-25T09:16:16.266Z,8.94
2023-03-25T09:18:47.911Z,8.80
2023-03-25T09:21:19.515Z,8.93
2023-03-25T09:23:51.327Z,9.00
2023-03-25T09:26:22.814Z,8.92
2023-03-25T09:29:00.369Z,9.05
2023-03-25T09:31:33.481Z,9.11
2023-03-25T09:34:05.442Z,9.26
2023-03-25T09:36:38.636Z,9.09
2023-03-25T09:39:10.264Z,9.23
2023-03-25T09:42:03.178Z,9.55
2023-03-25T09:45:11.398Z,9.73
2023-03-25T09:47:51.951Z,9.86
2023-03-25T09:50:24.906Z,10.06
2023-03-25T09:53:24.434Z,10.21
2023-03-25T09:55:56.313Z,10.17
2023-03-25T09:58:36.578Z,10.11
2023-03-25T10:01:27.641Z,10.20
2023-03-25T10:04:15.518Z,10.26
2023-03-25T10:06:53.102Z,10.68
2023-03-25T10:10:01.069Z,10.78
2023-03-25T10:13:11.448Z,10.71
2023-03-25T10:16:24.141Z,10.87
2023-03-25T10:19:32.485Z,10.91
2023-03-25T10:22:09.236Z,10.66
2023-03-25T10:25:00.350Z,10.57
2023-03-25T10:27:33.535Z,10.56
2023-03-25T10:30:18.012Z,10.68
2023-03-25T10:33:01.699Z,10.67
2023-03-25T10:35:39.364Z,10.59
2023-03-25T10:38:18.796Z,10.51
2023-03-25T10:40:53.143Z,10.30
2023-03-25T10:43:36.141Z,10.18
2023-03-25T10:46:27.413Z,10.37
2023-03-25T10:48:59.250Z,10.46
2023-03-25T10:51:34.372Z,10.57
2023-03-25T10:54:06.134Z,10.82
2023-03-25T10:56:50.802Z,11.09
2023-03-25T10:59:43.572Z,10.73
2023-03-25T11:02:19.745Z,10.95
2023-03-25T11:04:56.110Z,11.01
2023-03-25T11:07:33.321Z,11.13
2023-03-25T11:10:13.759Z,10.94
2023-03-25T11:12:46.539Z,11.02
2023-03-25T11:15:31.611Z,11.08
2023-03-25T11:18:12.179Z,10.86
2023-03-25T11:20:54.763Z,10.77
2023-03-25T11:23:28.831Z,10.72
2023-03-25T11:26:15.508Z,10.91
2023-03-25T11:28:56.087Z,10.81
2023-03-25T11:31:31.356Z,10.85
2023-03-25T11:34:09.042Z,10.78
2023-03-25T11:36:49.735Z,11.11
2023-03-25T11:39:34.628Z,11.28
2023-03-25T11:42:32.571Z,11.25
2023-03-25T11:45:09.047Z,11.29
2023-03-25T11:47:42.267Z,11.03
2023-03-25T11:50:26.908Z,11.03
2023-03-25T11:53:01.860Z,11.14
2023-03-25T11:55:45.087Z,11.02
2023-03-25T11:58:19.652Z,11.23
2023-03-25T12:01:00.946Z,11.16
2023-03-25T12:03:39.399Z,11.63
2023-03-25T12:06:11.610Z,11.61
2023-03-25T12:08:52.240Z,11.72
2023-03-25T12:11:47.709Z,11.66
2023-03-25T12:14:34.557Z,11.64
2023-03-25T12:17:13.518Z,11.87
2023-03-25T12:20:00.277Z,11.80
2023-03-25T12:22:40.674Z,11.32
2023-03-25T12:25:27.230Z,11.20
2023-03-25T12:28:36.887Z,10.93
2023-03-25T12:31:31.996Z,10.89
2023-03-25T12:34:22.252Z,10.72
2023-03-25T12:37:17.358Z,10.70
2023-03-25T12:40:26.660Z,10.64
2023-03-25T12:43:03.768Z,10.77
2023-03-25T12:49:16.850Z,10.99
2023-03-25T12:51:48.239Z,11.22
2023-03-25T12:54:31.676Z,11.49
2023-03-25T12:57:24.445Z,12.05
2023-03-25T13:00:34.842Z,12.36
2023-03-25T13:03:12.583Z,11.91
2023-03-25T13:05:59.638Z,11.85
2023-03-25T13:08:48.021Z,11.83
2023-03-25T13:11:37.522Z,12.09
2023-03-25T13:14:34.030Z,12.17
2023-03-25T13:17:11.469Z,12.06
2023-03-25T13:19:44.332Z,11.90
2023-03-25T13:22:25.814Z,11.66
2023-03-25T13:25:03.454Z,11.49
2023-03-25T13:27:40.556Z,11.96
2023-03-25T13:30:33.566Z,12.26
2023-03-25T13:33:15.703Z,12.46
2023-03-25T13:35:56.161Z,12.78
2023-03-25T13:38:33.256Z,12.48
2023-03-25T13:41:39.957Z,13.65
2023-03-25T13:44:20.264Z,14.61
2023-03-25T13:47:00.280Z,15.61
2023-03-25T13:49:42.354Z,16.29
2023-03-25T13:52:14.916Z,17.32
2023-03-25T13:55:00.727Z,16.95
2023-03-25T13:57:52.007Z,16.92
2023-03-25T14:00:54.565Z,18.72
2023-03-25T14:03:42.280Z,17.93
2023-03-25T14:06:35.582Z,20.34
2023-03-25T14:09:34.261Z,20.44
2023-03-25T14:12:28.554Z,22.23
2023-03-25T14:15:06.517Z,22.34
2023-03-25T14:17:39.704Z,21.93
2023-03-25T14:20:25.276Z,22.49
2023-03-25T14:23:01.948Z,23.89
2023-03-25T14:25:37.618Z,22.70
2023-03-25T14:28:16.452Z,23.24
2023-03-25T14:31:08.505Z,23.38
2023-03-25T14:33:58.587Z,22.93
2023-03-25T14:36:51.929Z,23.57
2023-03-25T14:39:29.357Z,23.88
2023-03-25T14:42:11.455Z,21.02
2023-03-25T14:44:49.522Z,20.12
2023-03-25T14:47:31.996Z,19.77
2023-03-25T14:50:21.636Z,20.95
2023-03-25T14:52:59.955Z,19.79
2023-03-25T14:55:34.643Z,19.71
2023-03-25T14:58:14.921Z,21.44
2023-03-25T15:01:20.450Z,22.25
2023-03-25T15:04:19.133Z,20.97
2023-03-25T15:06:51.925Z,21.89
2023-03-25T15:09:23.637Z,22.16
2023-03-25T15:11:58.236Z,22.09
2023-03-25T15:14:37.185Z,22.34
2023-03-25T15:17:32.796Z,21.75
2023-03-25T15:20:10.420Z,20.17
2023-03-25T15:22:42.467Z,20.14
2023-03-25T15:25:19.595Z,18.38
2023-03-25T15:28:13.399Z,17.27
2023-03-25T15:30:59.684Z,15.61
2023-03-25T15:33:49.476Z,16.83
2023-03-25T15:36:39.791Z,17.87
2023-03-25T15:39:32.231Z,15.89
2023-03-25T15:42:10.835Z,14.83
2023-03-25T15:45:12.445Z,13.97
2023-03-25T15:47:46.850Z,13.16
2023-03-25T15:50:37.227Z,14.36
2023-03-25T15:53:53.047Z,15.16
2023-03-25T15:56:29.737Z,15.47
2023-03-25T15:59:12.504Z,14.66
2023-03-25T16:01:49.358Z,15.63
2023-03-25T16:04:42.332Z,15.99
2023-03-25T16:07:17.621Z,16.33
2023-03-25T16:09:50.398Z,15.20
2023-03-25T16:12:24.624Z,14.85
2023-03-25T16:14:56.141Z,14.31
2023-03-25T16:17:34.648Z,13.78
2023-03-25T16:20:07.746Z,12.98
2023-03-25T16:22:43.160Z,12.73
2023-03-25T16:25:19.661Z,12.27
2023-03-25T16:27:56.036Z,11.86
2023-03-25T16:30:39.997Z,11.66
2023-03-25T16:33:14.773Z,11.24
2023-03-25T16:35:51.948Z,11.34
2023-03-25T16:38:25.409Z,11.29
2023-03-25T16:41:24.054Z,11.26
2023-03-25T16:43:55.904Z,11.01
2023-03-25T16:46:28.211Z,11.07
2023-03-25T16:49:00.025Z,11.18
2023-03-25T16:51:36.787Z,10.94
2023-03-25T16:57:08.334Z,10.70
2023-03-25T16:59:39.891Z,10.69
2023-03-25T17:02:26.827Z,10.57
2023-03-25T17:05:21.982Z,10.33
2023-03-25T17:08:00.275Z,10.29
2023-03-25T17:10:44.239Z,10.13
2023-03-25T17:16:19.329Z,9.77
2023-03-25T17:18:53.060Z,9.69
2023-03-25T17:21:29.960Z,9.63
2023-03-25T17:24:07.795Z,9.48
2023-03-25T17:26:55.974Z,9.34
2023-03-25T17:29:27.433Z,9.21
2023-03-25T17:31:59.655Z,9.16
2023-03-25T17:34:32.122Z,9.09
2023-03-25T17:37:03.883Z,8.93
2023-03-25T17:39:36.348Z,8.78
2023-03-25T17:42:19.672Z,8.70
2023-03-25T17:44:52.099Z,8.73
2023-03-25T17:47:23.698Z,8.66
2023-03-25T17:49:56.411Z,8.59
2023-03-25T17:52:29.513Z,8.56
2023-03-25T17:55:02.974Z,8.44
2023-03-25T17:57:37.517Z,8.43
2023-03-25T18:00:15.259Z,8.42
2023-03-25T18:02:48.107Z,8.44
2023-03-25T18:05:19.653Z,8.33
2023-03-25T18:07:52.228Z,8.38
2023-03-25T18:10:25.695Z,8.37
2023-03-25T18:12:57.248Z,8.40
2023-03-25T18:15:28.713Z,8.33
2023-03-25T18:18:01.462Z,8.33
2023-03-25T18:20:35.981Z,8.35
2023-03-25T18:23:07.631Z,8.23
2023-03-25T18:25:40.912Z,8.27
2023-03-25T18:28:14.163Z,8.24
2023-03-25T18:30:56.602Z,8.26
2023-03-25T18:33:28.807Z,8.25
2023-03-25T18:36:01.517Z,8.19
2023-03-25T18:38:33.183Z,8.15
2023-03-25T18:41:06.611Z,8.09
2023-03-25T18:43:38.095Z,8.12
2023-03-25T18:46:14.161Z,8.11
2023-03-25T18:48:45.795Z,8.06
2023-03-25T18:51:17.597Z,7.98
2023-03-25T18:53:49.393Z,7.90
2023-03-25T18:56:20.911Z,7.93
2023-03-25T18:58:53.158Z,7.90
2023-03-25T19:01:25.472Z,7.85
2023-03-25T19:04:03.244Z,7.85
2023-03-25T19:06:37.486Z,7.78
2023-03-25T19:09:18.604Z,7.82
2023-03-25T19:11:50.366Z,7.75
2023-03-25T19:14:22.247Z,7.75
2023-03-25T19:17:03.227Z,7.73
2023-03-25T19:19:36.980Z,7.68
2023-03-25T19:22:09.792Z,7.59
2023-03-25T19:24:41.487Z,7.53
2023-03-25T19:27:13.321Z,7.52
2023-03-25T19:29:44.882Z,7.50
2023-03-25T19:32:17.517Z,7.48
2023-03-25T19:34:51.856Z,7.50
2023-03-25T19:37:26.712Z,7.51
2023-03-25T19:39:58.386Z,7.54
2023-03-25T19:42:29.879Z,7.43
2023-03-25T19:45:13.484Z,7.41
2023-03-25T19:47:45.825Z,7.44
2023-03-25T19:50:29.034Z,7.38
2023-03-25T19:53:03.034Z,7.39
2023-03-25T19:55:34.929Z,7.37
2023-03-25T19:58:07.414Z,7.37
2023-03-25T20:00:40.581Z,7.27
2023-03-25T20:03:14.818Z,7.22
2023-03-25T20:05:46.398Z,7.26
2023-03-25T20:08:17.884Z,7.26
2023-03-25T20:10:49.370Z,7.24
2023-03-25T20:13:21.346Z,7.25
2023-03-25T20:15:53.117Z,7.28
2023-03-25T20:18:24.911Z,7.22
2023-03-25T20:20:56.461Z,7.30
2023-03-25T20:23:28.031Z,7.27
2023-03-25T20:25:59.985Z,7.29
2023-03-25T20:28:31.587Z,7.30
2023-03-25T20:31:18.470Z,7.32
2023-03-25T20:33:50.766Z,7.30
2023-03-25T20:36:22.388Z,7.33
2023-03-25T20:38:57.671Z,7.37
2023-03-25T20:41:30.041Z,7.44
2023-03-25T20:44:01.675Z,7.44
2023-03-25T20:46:33.323Z,7.49
2023-03-25T20:49:08.921Z,7.45
2023-03-25T20:51:41.610Z,7.51
2023-03-25T20:54:17.177Z,7.50
2023-03-25T20:56:51.194Z,7.53
2023-03-25T20:59:22.982Z,7.53
2023-03-25T21:01:54.787Z,7.54
2023-03-25T21:04:26.546Z,7.49
2023-03-25T21:06:58.218Z,7.48
2023-03-25T21:09:30.130Z,7.51
2023-03-25T21:12:01.721Z,7.50
2023-03-25T21:14:33.207Z,7.51
2023-03-25T21:17:05.158Z,7.48
2023-03-25T21:19:38.166Z,7.41
2023-03-25T21:22:10.149Z,7.40
2023-03-25T21:24:42.650Z,7.43
2023-03-25T21:27:14.790Z,7.43
2023-03-25T21:29:47.110Z,7.33
2023-03-25T21:32:18.516Z,7.40
2023-03-25T21:34:50.065Z,7.43
2023-03-25T21:37:21.598Z,7.41
2023-03-25T21:39:58.168Z,7.43
2023-03-25T21:42:29.720Z,7.39
2023-03-25T21:45:02.616Z,7.43
2023-03-25T21:47:36.032Z,7.41
2023-03-25T21:50:10.979Z,7.41
2023-03-25T21:52:48.275Z,7.36
2023-03-25T21:55:19.809Z,7.23
2023-03-25T21:57:51.453Z,7.30
2023-03-25T22:00:24.685Z,7.29
2023-03-25T22:02:58.876Z,7.25
2023-03-25T22:05:32.738Z,7.26
2023-03-25T22:08:06.791Z,7.29
2023-03-25T22:10:38.401Z,7.29
2023-03-25T22:13:09.879Z,7.22
2023-03-25T22:15:41.774Z,7.27
2023-03-25T22:18:13.274Z,7.23
2023-03-25T22:20:44.872Z,7.25
2023-03-25T22:23:16.448Z,7.22
2023-03-25T22:25:49.070Z,7.10
2023-03-25T22:28:20.575Z,7.10
2023-03-25T22:30:52.110Z,7.08
2023-03-25T22:33:23.891Z,7.10
2023-03-25T22:36:03.331Z,7.10
2023-03-25T22:38:36.487Z,7.12
2023-03-25T22:41:09.205Z,7.09
2023-03-25T22:43:41.089Z,7.13
2023-03-25T22:46:13.852Z,7.16
2023-03-25T22:48:45.870Z,7.09
2023-03-25T22:51:20.332Z,7.08
2023-03-25T22:53:51.898Z,7.02
2023-03-25T22:56:25.867Z,7.06
2023-03-25T22:58:57.423Z,7.10
2023-03-25T23:01:29.524Z,7.04
2023-03-25T23:04:01.242Z,7.07
2023-03-25T23:06:35.502Z,7.07
2023-03-25T23:09:09.286Z,7.04
2023-03-25T23:11:40.993Z,7.04
2023-03-25T23:14:13.325Z,7.05
2023-03-25T23:16:45.051Z,7.06
2023-03-25T23:19:16.612Z,7.02
2023-03-25T23:21:48.200Z,7.01
2023-03-25T23:24:19.965Z,7.02
2023-03-25T23:26:52.091Z,7.04
2023-03-25T23:29:23.793Z,7.05
2023-03-25T23:31:55.646Z,7.11
2023-03-25T23:34:27.287Z,7.16
2023-03-25T23:36:58.866Z,7.21
2023-03-25T23:39:30.929Z,7.24
2023-03-25T23:42:02.621Z,7.30
2023-03-25T23:44:34.625Z,7.26
2023-03-25T23:47:06.325Z,7.29
2023-03-25T23:49:38.529Z,7.29
2023-03-25T23:52:11.766Z,7.34
2023-03-25T23:54:43.331Z,7.33
2023-03-25T23:57:16.023Z,7.33
2023-03-25T23:59:47.755Z,7.31
